Time;durP1;ratioP1;P1;durP2;ratioP2;P2;SDS_P1;SDS_P2;PMS_P1;PMS_P2;Temp;Humidity;BMP_temperature;BMP_pressure;BME280_temperature;BME280_humidity;BME280_pressure;Samples;Min_cycle;Max_cycle;Signal;HPM_P1;HPM_P2
2022/09/18 00:00:00;;;;;;;0.6;0.6;;;;;;;12.1;100.0;101380;;;;
2022/09/18 00:01:06;;;;;;;0.6;0.6;;;;;;;12.1;100.0;101370;;;;
2022/09/18 00:02:01;;;;;;;0.6;0.6;;;;;;;12.1;100.0;101370;;;;
2022/09/18 00:03:00;;;;;;;0.6;0.6;;;;;;;12.0;100.0;101360;;;;
2022/09/18 00:04:01;;;;;;;0.6;0.6;;;;;;;12.0;100.0;101360;;;;
2022/09/18 00:05:00;;;;;;;0.6;0.6;;;;;;;12.1;100.0;101360;;;;
2022/09/18 00:06:09;;;;;;;0.6;0.6;;;;;;;12.1;100.0;101360;;;;
2022/09/18 00:07:00;;;;;;;0.6;0.6;;;;;;;12.0;100.0;101360;;;;
2022/09/18 00:08:00;;;;;;;0.6;0.6;;;;;;;12.0;100.0;101360;;;;
2022/09/18 00:09:00;;;;;;;0.6;0.6;;;;;;;12.1;100.0;101360;;;;
2022/09/18 00:10:00;;;;;;;0.6;0.6;;;;;;;12.1;100.0;101360;;;;
2022/09/18 00:11:03;;;;;;;0.6;0.6;;;;;;;12.2;100.0;101350;;;;
2022/09/18 00:12:00;;;;;;;0.6;0.6;;;;;;;12.2;100.0;101350;;;;
2022/09/18 00:13:00;;;;;;;0.6;0.6;;;;;;;12.1;100.0;101350;;;;
2022/09/18 00:14:00;;;;;;;0.6;0.6;;;;;;;12.1;100.0;101350;;;;
2022/09/18 00:15:00;;;;;;;0.6;0.6;;;;;;;12.1;100.0;101350;;;;
2022/09/18 00:16:00;;;;;;;0.6;0.6;;;;;;;12.1;100.0;101350;;;;
2022/09/18 00:17:01;;;;;;;0.6;0.6;;;;;;;12.1;100.0;101360;;;;
2022/09/18 00:18:00;;;;;;;0.6;0.6;;;;;;;12.1;100.0;101360;;;;
2022/09/18 00:19:00;;;;;;;0.6;0.6;;;;;;;12.1;100.0;101360;;;;
2022/09/18 00:20:00;;;;;;;0.6;0.6;;;;;;;12.1;100.0;101360;;;;
2022/09/18 00:21:02;;;;;;;0.6;0.6;;;;;;;12.0;100.0;101360;;;;
2022/09/18 00:22:00;;;;;;;0.6;0.6;;;;;;;12.0;100.0;101360;;;;
2022/09/18 00:23:00;;;;;;;0.6;0.6;;;;;;;12.1;100.0;101350;;;;
2022/09/18 00:24:00;;;;;;;0.6;0.6;;;;;;;12.1;100.0;101350;;;;
2022/09/18 00:25:00;;;;;;;0.6;0.6;;;;;;;12.1;100.0;101360;;;;
2022/09/18 00:26:00;;;;;;;0.6;0.6;;;;;;;12.1;100.0;101360;;;;
2022/09/18 00:27:00;;;;;;;0.6;0.6;;;;;;;12.1;100.0;101350;;;;
2022/09/18 00:28:00;;;;;;;0.6;0.6;;;;;;;12.1;100.0;101350;;;;
2022/09/18 00:29:00;;;;;;;0.6;0.6;;;;;;;12.1;100.0;101360;;;;
2022/09/18 00:30:00;;;;;;;0.6;0.6;;;;;;;12.1;100.0;101360;;;;
2022/09/18 00:31:10;;;;;;;0.6;0.6;;;;;;;12.1;100.0;101350;;;;
2022/09/18 00:32:00;;;;;;;0.6;0.6;;;;;;;12.1;100.0;101350;;;;
2022/09/18 00:33:00;;;;;;;0.6;0.6;;;;;;;12.1;100.0;101350;;;;
2022/09/18 00:34:01;;;;;;;0.6;0.6;;;;;;;12.1;100.0;101350;;;;
2022/09/18 00:35:00;;;;;;;0.6;0.6;;;;;;;12.1;100.0;101350;;;;
2022/09/18 00:36:02;;;;;;;0.6;0.6;;;;;;;12.1;100.0;101350;;;;
2022/09/18 00:37:00;;;;;;;0.6;0.6;;;;;;;12.1;100.0;101350;;;;
2022/09/18 00:38:00;;;;;;;0.6;0.6;;;;;;;12.1;100.0;101350;;;;
2022/09/18 00:39:01;;;;;;;0.6;0.6;;;;;;;12.1;100.0;101350;;;;
2022/09/18 00:40:00;;;;;;;0.6;0.6;;;;;;;12.1;100.0;101350;;;;
2022/09/18 00:41:01;;;;;;;0.6;0.6;;;;;;;12.0;100.0;101350;;;;
2022/09/18 00:42:00;;;;;;;0.6;0.6;;;;;;;12.0;100.0;101350;;;;
2022/09/18 00:43:10;;;;;;;0.6;0.6;;;;;;;12.0;100.0;101360;;;;
2022/09/18 00:44:10;;;;;;;0.6;0.6;;;;;;;12.0;100.0;101360;;;;
2022/09/18 00:45:00;;;;;;;0.6;0.6;;;;;;;12.1;100.0;101360;;;;
2022/09/18 00:46:01;;;;;;;0.6;0.6;;;;;;;12.1;100.0;101360;;;;
2022/09/18 00:47:03;;;;;;;0.6;0.6;;;;;;;12.1;100.0;101360;;;;
2022/09/18 00:48:00;;;;;;;0.6;0.6;;;;;;;12.1;100.0;101360;;;;
2022/09/18 00:49:05;;;;;;;0.8;0.8;;;;;;;12.1;100.0;101360;;;;
2022/09/18 00:50:06;;;;;;;0.8;0.8;;;;;;;12.1;100.0;101360;;;;
2022/09/18 00:51:00;;;;;;;0.8;0.8;;;;;;;12.1;100.0;101360;;;;
2022/09/18 00:52:00;;;;;;;0.8;0.8;;;;;;;12.1;100.0;101360;;;;
2022/09/18 00:53:02;;;;;;;0.8;0.8;;;;;;;12.1;100.0;101370;;;;
2022/09/18 00:54:05;;;;;;;0.8;0.8;;;;;;;12.1;100.0;101370;;;;
2022/09/18 00:55:04;;;;;;;0.8;0.8;;;;;;;12.0;100.0;101360;;;;
2022/09/18 00:56:01;;;;;;;0.8;0.8;;;;;;;12.0;100.0;101360;;;;
2022/09/18 00:57:02;;;;;;;0.8;0.8;;;;;;;12.1;100.0;101350;;;;
2022/09/18 00:58:01;;;;;;;0.8;0.8;;;;;;;12.1;100.0;101350;;;;
2022/09/18 00:59:00;;;;;;;0.8;0.8;;;;;;;12.0;100.0;101350;;;;
2022/09/18 01:00:01;;;;;;;0.8;0.8;;;;;;;12.0;100.0;101350;;;;
2022/09/18 01:01:01;;;;;;;0.8;0.8;;;;;;;12.1;100.0;101350;;;;
2022/09/18 01:02:00;;;;;;;0.8;0.8;;;;;;;12.1;100.0;101350;;;;
2022/09/18 01:03:00;;;;;;;0.8;0.8;;;;;;;12.0;100.0;101350;;;;
2022/09/18 01:04:00;;;;;;;0.8;0.8;;;;;;;12.0;100.0;101350;;;;
2022/09/18 01:05:00;;;;;;;0.8;0.8;;;;;;;12.1;100.0;101350;;;;
2022/09/18 01:06:10;;;;;;;0.8;0.8;;;;;;;12.1;100.0;101350;;;;
2022/09/18 01:07:07;;;;;;;0.8;0.8;;;;;;;12.1;100.0;101350;;;;
2022/09/18 01:08:00;;;;;;;0.8;0.8;;;;;;;12.1;100.0;101350;;;;
2022/09/18 01:09:03;;;;;;;0.7;0.7;;;;;;;12.0;100.0;101350;;;;
2022/09/18 01:10:00;;;;;;;0.7;0.7;;;;;;;12.0;100.0;101350;;;;
2022/09/18 01:11:07;;;;;;;0.7;0.7;;;;;;;12.1;100.0;101350;;;;
2022/09/18 01:12:01;;;;;;;0.7;0.7;;;;;;;12.1;100.0;101350;;;;
2022/09/18 01:13:08;;;;;;;0.7;0.7;;;;;;;12.0;100.0;101360;;;;
2022/09/18 01:14:08;;;;;;;0.7;0.7;;;;;;;12.0;100.0;101360;;;;
2022/09/18 01:15:10;;;;;;;0.7;0.7;;;;;;;12.1;100.0;101350;;;;
2022/09/18 01:16:10;;;;;;;0.7;0.7;;;;;;;12.1;100.0;101350;;;;
2022/09/18 01:17:07;;;;;;;0.7;0.7;;;;;;;12.0;100.0;101350;;;;
2022/09/18 01:18:00;;;;;;;0.7;0.7;;;;;;;12.0;100.0;101350;;;;
2022/09/18 01:19:01;;;;;;;0.7;0.7;;;;;;;12.1;100.0;101360;;;;
2022/09/18 01:20:03;;;;;;;0.7;0.7;;;;;;;12.1;100.0;101360;;;;
2022/09/18 01:21:00;;;;;;;0.7;0.7;;;;;;;12.1;100.0;101360;;;;
2022/09/18 01:22:00;;;;;;;0.7;0.7;;;;;;;12.1;100.0;101360;;;;
2022/09/18 01:23:10;;;;;;;0.7;0.7;;;;;;;12.1;100.0;101350;;;;
2022/09/18 01:24:00;;;;;;;0.7;0.7;;;;;;;12.1;100.0;101350;;;;
2022/09/18 01:25:00;;;;;;;0.7;0.7;;;;;;;12.0;100.0;101350;;;;
2022/09/18 01:26:09;;;;;;;0.7;0.7;;;;;;;12.0;100.0;101350;;;;
2022/09/18 01:27:03;;;;;;;0.7;0.7;;;;;;;12.0;100.0;101360;;;;
2022/09/18 01:28:03;;;;;;;0.7;0.7;;;;;;;12.0;100.0;101360;;;;
2022/09/18 01:29:06;;;;;;;0.8;0.8;;;;;;;11.9;100.0;101360;;;;
2022/09/18 01:30:04;;;;;;;0.8;0.8;;;;;;;11.9;100.0;101360;;;;
2022/09/18 01:31:04;;;;;;;0.8;0.8;;;;;;;12.1;100.0;101360;;;;
2022/09/18 01:32:05;;;;;;;0.8;0.8;;;;;;;12.1;100.0;101360;;;;
2022/09/18 01:33:06;;;;;;;0.8;0.8;;;;;;;12.1;100.0;101360;;;;
2022/09/18 01:34:03;;;;;;;0.8;0.8;;;;;;;12.1;100.0;101360;;;;
2022/09/18 01:35:17;;;;;;;0.8;0.8;;;;;;;12.1;100.0;101360;;;;
2022/09/18 01:36:03;;;;;;;0.8;0.8;;;;;;;12.1;100.0;101360;;;;
2022/09/18 01:37:05;;;;;;;0.8;0.8;;;;;;;12.0;100.0;101360;;;;
2022/09/18 01:38:07;;;;;;;0.8;0.8;;;;;;;12.0;100.0;101360;;;;
2022/09/18 01:39:08;;;;;;;0.8;0.8;;;;;;;12.0;100.0;101350;;;;
2022/09/18 01:40:10;;;;;;;0.8;0.8;;;;;;;12.0;100.0;101350;;;;
2022/09/18 01:41:01;;;;;;;0.8;0.8;;;;;;;12.0;100.0;101350;;;;
2022/09/18 01:42:01;;;;;;;0.8;0.8;;;;;;;12.0;100.0;101350;;;;
2022/09/18 01:43:02;;;;;;;0.8;0.8;;;;;;;12.0;100.0;101360;;;;
2022/09/18 01:44:03;;;;;;;0.8;0.8;;;;;;;12.0;100.0;101360;;;;
2022/09/18 01:45:03;;;;;;;0.8;0.8;;;;;;;12.0;100.0;101350;;;;
2022/09/18 01:46:03;;;;;;;0.8;0.8;;;;;;;12.0;100.0;101350;;;;
2022/09/18 01:47:02;;;;;;;0.8;0.8;;;;;;;12.0;100.0;101350;;;;
2022/09/18 01:48:02;;;;;;;0.8;0.8;;;;;;;12.0;100.0;101350;;;;
2022/09/18 01:49:02;;;;;;;0.7;0.7;;;;;;;12.0;100.0;101350;;;;
2022/09/18 01:50:01;;;;;;;0.7;0.7;;;;;;;12.0;100.0;101350;;;;
2022/09/18 01:51:04;;;;;;;0.7;0.7;;;;;;;12.0;100.0;101340;;;;
2022/09/18 01:52:04;;;;;;;0.7;0.7;;;;;;;12.0;100.0;101340;;;;
2022/09/18 01:53:04;;;;;;;0.7;0.7;;;;;;;12.1;100.0;101340;;;;
2022/09/18 01:54:03;;;;;;;0.7;0.7;;;;;;;12.1;100.0;101340;;;;
2022/09/18 01:55:01;;;;;;;0.7;0.7;;;;;;;12.0;100.0;101350;;;;
2022/09/18 01:56:10;;;;;;;0.7;0.7;;;;;;;12.0;100.0;101350;;;;
2022/09/18 01:57:06;;;;;;;0.7;0.7;;;;;;;12.0;100.0;101350;;;;
2022/09/18 01:58:03;;;;;;;0.7;0.7;;;;;;;12.0;100.0;101350;;;;
2022/09/18 01:59:03;;;;;;;0.7;0.7;;;;;;;12.0;100.0;101350;;;;
2022/09/18 02:00:03;;;;;;;0.7;0.7;;;;;;;12.0;100.0;101350;;;;
2022/09/18 02:01:03;;;;;;;0.7;0.7;;;;;;;11.9;100.0;101340;;;;
2022/09/18 02:02:02;;;;;;;0.7;0.7;;;;;;;11.9;100.0;101340;;;;
2022/09/18 02:03:04;;;;;;;0.7;0.7;;;;;;;12.0;100.0;101340;;;;
2022/09/18 02:04:02;;;;;;;0.7;0.7;;;;;;;12.0;100.0;101340;;;;
2022/09/18 02:05:01;;;;;;;0.7;0.7;;;;;;;12.0;100.0;101340;;;;
2022/09/18 02:06:05;;;;;;;0.7;0.7;;;;;;;12.0;100.0;101340;;;;
2022/09/18 02:07:13;;;;;;;0.7;0.7;;;;;;;11.9;100.0;101340;;;;
2022/09/18 02:08:00;;;;;;;0.7;0.7;;;;;;;11.9;100.0;101340;;;;
2022/09/18 02:09:01;;;;;;;0.6;0.6;;;;;;;11.9;100.0;101340;;;;
2022/09/18 02:10:00;;;;;;;0.6;0.6;;;;;;;11.9;100.0;101340;;;;
2022/09/18 02:11:05;;;;;;;0.6;0.6;;;;;;;11.9;100.0;101340;;;;
2022/09/18 02:12:02;;;;;;;0.6;0.6;;;;;;;11.9;100.0;101340;;;;
2022/09/18 02:13:01;;;;;;;0.6;0.6;;;;;;;11.9;100.0;101340;;;;
2022/09/18 02:14:05;;;;;;;0.6;0.6;;;;;;;11.9;100.0;101340;;;;
2022/09/18 02:15:03;;;;;;;0.6;0.6;;;;;;;11.9;100.0;101340;;;;
2022/09/18 02:16:02;;;;;;;0.6;0.6;;;;;;;11.9;100.0;101340;;;;
2022/09/18 02:17:09;;;;;;;0.6;0.6;;;;;;;11.9;100.0;101340;;;;
2022/09/18 02:18:04;;;;;;;0.6;0.6;;;;;;;11.9;100.0;101340;;;;
2022/09/18 02:19:04;;;;;;;0.6;0.6;;;;;;;11.8;100.0;101340;;;;
2022/09/18 02:20:07;;;;;;;0.6;0.6;;;;;;;11.8;100.0;101340;;;;
2022/09/18 02:21:01;;;;;;;0.6;0.6;;;;;;;11.8;100.0;101340;;;;
2022/09/18 02:22:03;;;;;;;0.6;0.6;;;;;;;11.8;100.0;101340;;;;
2022/09/18 02:23:02;;;;;;;0.6;0.6;;;;;;;11.9;100.0;101340;;;;
2022/09/18 02:24:03;;;;;;;0.6;0.6;;;;;;;11.9;100.0;101340;;;;
2022/09/18 02:25:01;;;;;;;0.6;0.6;;;;;;;11.9;100.0;101340;;;;
2022/09/18 02:26:03;;;;;;;0.6;0.6;;;;;;;11.9;100.0;101340;;;;
2022/09/18 02:27:01;;;;;;;0.6;0.6;;;;;;;11.9;100.0;101340;;;;
2022/09/18 02:28:01;;;;;;;0.6;0.6;;;;;;;11.9;100.0;101340;;;;
2022/09/18 02:29:01;;;;;;;0.8;0.8;;;;;;;11.9;100.0;101340;;;;
2022/09/18 02:30:01;;;;;;;0.8;0.8;;;;;;;11.9;100.0;101340;;;;
2022/09/18 02:31:00;;;;;;;0.8;0.8;;;;;;;12.0;100.0;101340;;;;
2022/09/18 02:32:00;;;;;;;0.8;0.8;;;;;;;12.0;100.0;101340;;;;
2022/09/18 02:33:00;;;;;;;0.8;0.8;;;;;;;12.0;100.0;101330;;;;
2022/09/18 02:34:00;;;;;;;0.8;0.8;;;;;;;12.0;100.0;101330;;;;
2022/09/18 02:35:00;;;;;;;0.8;0.8;;;;;;;12.0;100.0;101330;;;;
2022/09/18 02:36:01;;;;;;;0.8;0.8;;;;;;;12.0;100.0;101330;;;;
2022/09/18 02:37:10;;;;;;;0.8;0.8;;;;;;;12.0;100.0;101330;;;;
2022/09/18 02:38:05;;;;;;;0.8;0.8;;;;;;;12.0;100.0;101330;;;;
2022/09/18 02:39:10;;;;;;;0.8;0.8;;;;;;;12.0;100.0;101330;;;;
2022/09/18 02:40:00;;;;;;;0.8;0.8;;;;;;;12.0;100.0;101330;;;;
2022/09/18 02:41:10;;;;;;;0.8;0.8;;;;;;;12.0;100.0;101330;;;;
2022/09/18 02:42:07;;;;;;;0.8;0.8;;;;;;;12.0;100.0;101330;;;;
2022/09/18 02:43:03;;;;;;;0.8;0.8;;;;;;;12.0;100.0;101320;;;;
2022/09/18 02:44:05;;;;;;;0.8;0.8;;;;;;;12.0;100.0;101320;;;;
2022/09/18 02:45:10;;;;;;;0.8;0.8;;;;;;;12.0;100.0;101320;;;;
2022/09/18 02:46:10;;;;;;;0.8;0.8;;;;;;;12.0;100.0;101320;;;;
2022/09/18 02:47:01;;;;;;;0.8;0.8;;;;;;;12.0;100.0;101320;;;;
2022/09/18 02:48:03;;;;;;;0.8;0.8;;;;;;;12.0;100.0;101320;;;;
2022/09/18 02:49:10;;;;;;;0.7;0.7;;;;;;;12.0;100.0;101320;;;;
2022/09/18 02:50:09;;;;;;;0.7;0.7;;;;;;;12.0;100.0;101320;;;;
2022/09/18 02:51:00;;;;;;;0.7;0.7;;;;;;;12.0;100.0;101320;;;;
2022/09/18 02:52:03;;;;;;;0.7;0.7;;;;;;;12.0;100.0;101320;;;;
2022/09/18 02:53:01;;;;;;;0.7;0.7;;;;;;;12.0;100.0;101320;;;;
2022/09/18 02:54:03;;;;;;;0.7;0.7;;;;;;;12.0;100.0;101320;;;;
2022/09/18 02:55:06;;;;;;;0.7;0.7;;;;;;;12.0;100.0;101320;;;;
2022/09/18 02:56:07;;;;;;;0.7;0.7;;;;;;;12.0;100.0;101320;;;;
2022/09/18 02:57:03;;;;;;;0.7;0.7;;;;;;;12.0;100.0;101320;;;;
2022/09/18 02:58:03;;;;;;;0.7;0.7;;;;;;;12.0;100.0;101320;;;;
2022/09/18 02:59:08;;;;;;;0.7;0.7;;;;;;;12.1;100.0;101320;;;;
2022/09/18 03:00:01;;;;;;;0.7;0.7;;;;;;;12.1;100.0;101320;;;;
2022/09/18 03:01:02;;;;;;;0.7;0.7;;;;;;;12.0;100.0;101320;;;;
2022/09/18 03:02:01;;;;;;;0.7;0.7;;;;;;;12.0;100.0;101320;;;;
2022/09/18 03:03:00;;;;;;;0.7;0.7;;;;;;;12.0;100.0;101310;;;;
2022/09/18 03:04:04;;;;;;;0.7;0.7;;;;;;;12.0;100.0;101310;;;;
2022/09/18 03:05:00;;;;;;;0.7;0.7;;;;;;;12.0;100.0;101310;;;;
2022/09/18 03:06:01;;;;;;;0.7;0.7;;;;;;;12.0;100.0;101310;;;;
2022/09/18 03:07:00;;;;;;;0.7;0.7;;;;;;;11.9;100.0;101310;;;;
2022/09/18 03:08:01;;;;;;;0.7;0.7;;;;;;;11.9;100.0;101310;;;;
2022/09/18 03:09:00;;;;;;;0.7;0.7;;;;;;;12.0;100.0;101310;;;;
2022/09/18 03:10:01;;;;;;;0.7;0.7;;;;;;;12.0;100.0;101310;;;;
2022/09/18 03:11:00;;;;;;;0.7;0.7;;;;;;;12.0;100.0;101310;;;;
2022/09/18 03:12:01;;;;;;;0.7;0.7;;;;;;;12.0;100.0;101310;;;;
2022/09/18 03:13:00;;;;;;;0.7;0.7;;;;;;;12.0;100.0;101300;;;;
2022/09/18 03:14:00;;;;;;;0.7;0.7;;;;;;;12.0;100.0;101300;;;;
2022/09/18 03:15:00;;;;;;;0.7;0.7;;;;;;;11.9;100.0;101310;;;;
2022/09/18 03:16:00;;;;;;;0.7;0.7;;;;;;;11.9;100.0;101310;;;;
2022/09/18 03:17:00;;;;;;;0.7;0.7;;;;;;;11.9;100.0;101300;;;;
2022/09/18 03:18:00;;;;;;;0.7;0.7;;;;;;;11.9;100.0;101300;;;;
2022/09/18 03:19:00;;;;;;;0.7;0.7;;;;;;;11.9;100.0;101310;;;;
2022/09/18 03:20:01;;;;;;;0.7;0.7;;;;;;;11.9;100.0;101310;;;;
2022/09/18 03:21:00;;;;;;;0.7;0.7;;;;;;;11.8;100.0;101300;;;;
2022/09/18 03:22:00;;;;;;;0.7;0.7;;;;;;;11.8;100.0;101300;;;;
2022/09/18 03:23:00;;;;;;;0.7;0.7;;;;;;;11.9;100.0;101300;;;;
2022/09/18 03:24:00;;;;;;;0.7;0.7;;;;;;;11.9;100.0;101300;;;;
2022/09/18 03:25:00;;;;;;;0.7;0.7;;;;;;;11.8;100.0;101300;;;;
2022/09/18 03:26:00;;;;;;;0.7;0.7;;;;;;;11.8;100.0;101300;;;;
2022/09/18 03:27:00;;;;;;;0.7;0.7;;;;;;;11.9;100.0;101300;;;;
2022/09/18 03:28:00;;;;;;;0.7;0.7;;;;;;;11.9;100.0;101300;;;;
2022/09/18 03:29:00;;;;;;;0.6;0.6;;;;;;;11.8;100.0;101300;;;;
2022/09/18 03:30:00;;;;;;;0.6;0.6;;;;;;;11.8;100.0;101300;;;;
2022/09/18 03:31:00;;;;;;;0.6;0.6;;;;;;;11.9;100.0;101300;;;;
2022/09/18 03:32:00;;;;;;;0.6;0.6;;;;;;;11.9;100.0;101300;;;;
2022/09/18 03:33:00;;;;;;;0.6;0.6;;;;;;;12.0;100.0;101310;;;;
2022/09/18 03:34:00;;;;;;;0.6;0.6;;;;;;;12.0;100.0;101310;;;;
2022/09/18 03:35:00;;;;;;;0.6;0.6;;;;;;;11.9;100.0;101300;;;;
2022/09/18 03:36:00;;;;;;;0.6;0.6;;;;;;;11.9;100.0;101300;;;;
2022/09/18 03:37:00;;;;;;;0.6;0.6;;;;;;;11.9;100.0;101300;;;;
2022/09/18 03:38:00;;;;;;;0.6;0.6;;;;;;;11.9;100.0;101300;;;;
2022/09/18 03:39:00;;;;;;;0.6;0.6;;;;;;;11.9;100.0;101300;;;;
2022/09/18 03:40:00;;;;;;;0.6;0.6;;;;;;;11.9;100.0;101300;;;;
2022/09/18 03:41:00;;;;;;;0.6;0.6;;;;;;;11.9;100.0;101290;;;;
2022/09/18 03:42:00;;;;;;;0.6;0.6;;;;;;;11.9;100.0;101290;;;;
2022/09/18 03:43:00;;;;;;;0.6;0.6;;;;;;;11.9;100.0;101290;;;;
2022/09/18 03:44:00;;;;;;;0.6;0.6;;;;;;;11.9;100.0;101290;;;;
2022/09/18 03:45:00;;;;;;;0.6;0.6;;;;;;;11.9;100.0;101290;;;;
2022/09/18 03:46:00;;;;;;;0.6;0.6;;;;;;;11.9;100.0;101290;;;;
2022/09/18 03:47:00;;;;;;;0.6;0.6;;;;;;;11.8;100.0;101290;;;;
2022/09/18 03:48:00;;;;;;;0.6;0.6;;;;;;;11.8;100.0;101290;;;;
2022/09/18 03:49:00;;;;;;;0.7;0.7;;;;;;;11.9;100.0;101290;;;;
2022/09/18 03:50:00;;;;;;;0.7;0.7;;;;;;;11.9;100.0;101290;;;;
2022/09/18 03:51:00;;;;;;;0.7;0.7;;;;;;;11.9;100.0;101290;;;;
2022/09/18 03:52:00;;;;;;;0.7;0.7;;;;;;;11.9;100.0;101290;;;;
2022/09/18 03:53:00;;;;;;;0.7;0.7;;;;;;;11.9;100.0;101290;;;;
2022/09/18 03:54:00;;;;;;;0.7;0.7;;;;;;;11.9;100.0;101290;;;;
2022/09/18 03:55:00;;;;;;;0.7;0.7;;;;;;;11.8;100.0;101290;;;;
2022/09/18 03:56:00;;;;;;;0.7;0.7;;;;;;;11.8;100.0;101290;;;;
2022/09/18 03:57:00;;;;;;;0.7;0.7;;;;;;;11.8;100.0;101280;;;;
2022/09/18 03:58:00;;;;;;;0.7;0.7;;;;;;;11.8;100.0;101280;;;;
2022/09/18 03:59:00;;;;;;;0.7;0.7;;;;;;;11.8;100.0;101290;;;;
2022/09/18 04:00:00;;;;;;;0.7;0.7;;;;;;;11.8;100.0;101290;;;;
2022/09/18 04:01:00;;;;;;;0.7;0.7;;;;;;;11.9;100.0;101290;;;;
2022/09/18 04:02:00;;;;;;;0.7;0.7;;;;;;;11.9;100.0;101290;;;;
2022/09/18 04:03:00;;;;;;;0.7;0.7;;;;;;;11.8;100.0;101280;;;;
2022/09/18 04:04:00;;;;;;;0.7;0.7;;;;;;;11.8;100.0;101280;;;;
2022/09/18 04:05:01;;;;;;;0.7;0.7;;;;;;;11.8;100.0;101280;;;;
2022/09/18 04:06:01;;;;;;;0.7;0.7;;;;;;;11.8;100.0;101280;;;;
2022/09/18 04:07:00;;;;;;;0.7;0.7;;;;;;;11.9;100.0;101280;;;;
2022/09/18 04:08:01;;;;;;;0.7;0.7;;;;;;;11.9;100.0;101280;;;;
2022/09/18 04:09:00;;;;;;;0.7;0.7;;;;;;;11.8;100.0;101280;;;;
2022/09/18 04:10:00;;;;;;;0.7;0.7;;;;;;;11.8;100.0;101280;;;;
2022/09/18 04:11:02;;;;;;;0.7;0.7;;;;;;;11.7;100.0;101280;;;;
2022/09/18 04:12:00;;;;;;;0.7;0.7;;;;;;;11.7;100.0;101280;;;;
2022/09/18 04:13:00;;;;;;;0.7;0.7;;;;;;;11.8;100.0;101280;;;;
2022/09/18 04:14:00;;;;;;;0.7;0.7;;;;;;;11.8;100.0;101280;;;;
2022/09/18 04:15:00;;;;;;;0.7;0.7;;;;;;;11.9;100.0;101290;;;;
2022/09/18 04:16:00;;;;;;;0.7;0.7;;;;;;;11.9;100.0;101290;;;;
2022/09/18 04:17:00;;;;;;;0.7;0.7;;;;;;;11.8;100.0;101290;;;;
2022/09/18 04:18:00;;;;;;;0.7;0.7;;;;;;;11.8;100.0;101290;;;;
2022/09/18 04:19:00;;;;;;;0.7;0.7;;;;;;;11.8;100.0;101290;;;;
2022/09/18 04:20:00;;;;;;;0.7;0.7;;;;;;;11.8;100.0;101290;;;;
2022/09/18 04:21:00;;;;;;;0.7;0.7;;;;;;;11.8;100.0;101290;;;;
2022/09/18 04:22:00;;;;;;;0.7;0.7;;;;;;;11.8;100.0;101290;;;;
2022/09/18 04:23:00;;;;;;;0.7;0.7;;;;;;;11.9;100.0;101290;;;;
2022/09/18 04:24:00;;;;;;;0.7;0.7;;;;;;;11.9;100.0;101290;;;;
2022/09/18 04:25:00;;;;;;;0.7;0.7;;;;;;;11.8;100.0;101290;;;;
2022/09/18 04:26:07;;;;;;;0.7;0.7;;;;;;;11.8;100.0;101290;;;;
2022/09/18 04:27:00;;;;;;;0.7;0.7;;;;;;;11.8;100.0;101300;;;;
2022/09/18 04:28:00;;;;;;;0.7;0.7;;;;;;;11.8;100.0;101300;;;;
2022/09/18 04:29:01;;;;;;;0.6;0.6;;;;;;;11.9;100.0;101290;;;;
2022/09/18 04:30:00;;;;;;;0.6;0.6;;;;;;;11.9;100.0;101290;;;;
2022/09/18 04:31:00;;;;;;;0.6;0.6;;;;;;;11.8;100.0;101290;;;;
2022/09/18 04:32:00;;;;;;;0.6;0.6;;;;;;;11.8;100.0;101290;;;;
2022/09/18 04:33:00;;;;;;;0.6;0.6;;;;;;;11.9;100.0;101290;;;;
2022/09/18 04:34:00;;;;;;;0.6;0.6;;;;;;;11.9;100.0;101290;;;;
2022/09/18 04:35:00;;;;;;;0.6;0.6;;;;;;;11.9;100.0;101290;;;;
2022/09/18 04:36:00;;;;;;;0.6;0.6;;;;;;;11.9;100.0;101290;;;;
2022/09/18 04:37:00;;;;;;;0.6;0.6;;;;;;;11.8;100.0;101290;;;;
2022/09/18 04:38:00;;;;;;;0.6;0.6;;;;;;;11.8;100.0;101290;;;;
2022/09/18 04:39:00;;;;;;;0.6;0.6;;;;;;;11.8;100.0;101290;;;;
2022/09/18 04:40:00;;;;;;;0.6;0.6;;;;;;;11.8;100.0;101290;;;;
2022/09/18 04:41:00;;;;;;;0.6;0.6;;;;;;;11.9;100.0;101280;;;;
2022/09/18 04:42:00;;;;;;;0.6;0.6;;;;;;;11.9;100.0;101280;;;;
2022/09/18 04:43:00;;;;;;;0.6;0.6;;;;;;;11.9;100.0;101280;;;;
2022/09/18 04:44:00;;;;;;;0.6;0.6;;;;;;;11.9;100.0;101280;;;;
2022/09/18 04:45:00;;;;;;;0.6;0.6;;;;;;;11.9;100.0;101280;;;;
2022/09/18 04:46:00;;;;;;;0.6;0.6;;;;;;;11.9;100.0;101280;;;;
2022/09/18 04:47:00;;;;;;;0.6;0.6;;;;;;;11.8;100.0;101280;;;;
2022/09/18 04:48:00;;;;;;;0.6;0.6;;;;;;;11.8;100.0;101280;;;;
2022/09/18 04:49:00;;;;;;;0.7;0.7;;;;;;;11.8;100.0;101280;;;;
2022/09/18 04:50:00;;;;;;;0.7;0.7;;;;;;;11.8;100.0;101280;;;;
2022/09/18 04:51:00;;;;;;;0.7;0.7;;;;;;;11.9;100.0;101270;;;;
2022/09/18 04:52:00;;;;;;;0.7;0.7;;;;;;;11.9;100.0;101270;;;;
2022/09/18 04:53:00;;;;;;;0.7;0.7;;;;;;;11.9;100.0;101280;;;;
2022/09/18 04:54:00;;;;;;;0.7;0.7;;;;;;;11.9;100.0;101280;;;;
2022/09/18 04:55:00;;;;;;;0.7;0.7;;;;;;;11.9;100.0;101290;;;;
2022/09/18 04:56:00;;;;;;;0.7;0.7;;;;;;;11.9;100.0;101290;;;;
2022/09/18 04:57:00;;;;;;;0.7;0.7;;;;;;;11.8;100.0;101290;;;;
2022/09/18 04:58:00;;;;;;;0.7;0.7;;;;;;;11.8;100.0;101290;;;;
2022/09/18 04:59:00;;;;;;;0.7;0.7;;;;;;;11.8;100.0;101290;;;;
2022/09/18 05:00:00;;;;;;;0.7;0.7;;;;;;;11.8;100.0;101290;;;;
2022/09/18 05:01:00;;;;;;;0.7;0.7;;;;;;;11.9;100.0;101280;;;;
2022/09/18 05:02:00;;;;;;;0.7;0.7;;;;;;;11.9;100.0;101280;;;;
2022/09/18 05:03:00;;;;;;;0.7;0.7;;;;;;;11.9;100.0;101280;;;;
2022/09/18 05:04:00;;;;;;;0.7;0.7;;;;;;;11.9;100.0;101280;;;;
2022/09/18 05:05:00;;;;;;;0.7;0.7;;;;;;;11.8;100.0;101280;;;;
2022/09/18 05:06:00;;;;;;;0.7;0.7;;;;;;;11.8;100.0;101280;;;;
2022/09/18 05:07:00;;;;;;;0.7;0.7;;;;;;;11.9;100.0;101270;;;;
2022/09/18 05:08:00;;;;;;;0.5;0.5;;;;;;;11.9;100.0;101270;;;;
2022/09/18 05:09:00;;;;;;;0.5;0.5;;;;;;;11.8;100.0;101280;;;;
2022/09/18 05:10:00;;;;;;;0.5;0.5;;;;;;;11.8;100.0;101280;;;;
2022/09/18 05:11:00;;;;;;;0.5;0.5;;;;;;;11.9;100.0;101280;;;;
2022/09/18 05:12:00;;;;;;;0.5;0.5;;;;;;;11.9;100.0;101280;;;;
2022/09/18 05:13:00;;;;;;;0.5;0.5;;;;;;;11.9;100.0;101280;;;;
2022/09/18 05:14:00;;;;;;;0.5;0.5;;;;;;;11.9;100.0;101280;;;;
2022/09/18 05:15:00;;;;;;;0.5;0.5;;;;;;;11.9;100.0;101280;;;;
2022/09/18 05:16:00;;;;;;;0.5;0.5;;;;;;;11.9;100.0;101280;;;;
2022/09/18 05:17:00;;;;;;;0.5;0.5;;;;;;;11.8;100.0;101290;;;;
2022/09/18 05:18:01;;;;;;;0.5;0.5;;;;;;;11.8;100.0;101290;;;;
2022/09/18 05:19:00;;;;;;;0.5;0.5;;;;;;;11.9;100.0;101280;;;;
2022/09/18 05:20:00;;;;;;;0.5;0.5;;;;;;;11.9;100.0;101280;;;;
2022/09/18 05:21:01;;;;;;;0.5;0.5;;;;;;;11.9;100.0;101280;;;;
2022/09/18 05:22:00;;;;;;;0.5;0.5;;;;;;;11.9;100.0;101280;;;;
2022/09/18 05:23:00;;;;;;;0.5;0.5;;;;;;;12.0;100.0;101280;;;;
2022/09/18 05:24:00;;;;;;;0.5;0.5;;;;;;;12.0;100.0;101280;;;;
2022/09/18 05:25:00;;;;;;;0.5;0.5;;;;;;;12.0;100.0;101280;;;;
2022/09/18 05:26:00;;;;;;;0.5;0.5;;;;;;;12.0;100.0;101280;;;;
2022/09/18 05:27:00;;;;;;;0.5;0.5;;;;;;;12.0;100.0;101280;;;;
2022/09/18 05:28:01;;;;;;;0.9;0.9;;;;;;;12.0;100.0;101280;;;;
2022/09/18 05:29:00;;;;;;;0.9;0.9;;;;;;;12.0;100.0;101280;;;;
2022/09/18 05:30:00;;;;;;;0.9;0.9;;;;;;;12.0;100.0;101280;;;;
2022/09/18 05:31:00;;;;;;;0.9;0.9;;;;;;;11.9;100.0;101280;;;;
2022/09/18 05:32:00;;;;;;;0.9;0.9;;;;;;;11.9;100.0;101280;;;;
2022/09/18 05:33:01;;;;;;;0.9;0.9;;;;;;;12.0;100.0;101280;;;;
2022/09/18 05:34:00;;;;;;;0.9;0.9;;;;;;;12.0;100.0;101280;;;;
2022/09/18 05:35:00;;;;;;;0.9;0.9;;;;;;;12.0;100.0;101280;;;;
2022/09/18 05:36:00;;;;;;;0.9;0.9;;;;;;;12.0;100.0;101280;;;;
2022/09/18 05:37:00;;;;;;;0.9;0.9;;;;;;;11.9;100.0;101280;;;;
2022/09/18 05:38:00;;;;;;;0.9;0.9;;;;;;;11.9;100.0;101280;;;;
2022/09/18 05:39:00;;;;;;;0.9;0.9;;;;;;;12.0;100.0;101280;;;;
2022/09/18 05:40:00;;;;;;;0.9;0.9;;;;;;;12.0;100.0;101280;;;;
2022/09/18 05:41:00;;;;;;;0.9;0.9;;;;;;;11.9;100.0;101280;;;;
2022/09/18 05:42:00;;;;;;;0.9;0.9;;;;;;;11.9;100.0;101280;;;;
2022/09/18 05:43:01;;;;;;;0.9;0.9;;;;;;;11.9;100.0;101280;;;;
2022/09/18 05:44:00;;;;;;;0.9;0.9;;;;;;;11.9;100.0;101280;;;;
2022/09/18 05:45:02;;;;;;;0.9;0.9;;;;;;;11.9;100.0;101280;;;;
2022/09/18 05:46:01;;;;;;;0.9;0.9;;;;;;;11.9;100.0;101280;;;;
2022/09/18 05:47:00;;;;;;;0.9;0.9;;;;;;;11.8;100.0;101290;;;;
2022/09/18 05:48:01;;;;;;;0.7;0.7;;;;;;;11.8;100.0;101290;;;;
2022/09/18 05:49:00;;;;;;;0.7;0.7;;;;;;;11.9;100.0;101290;;;;
2022/09/18 05:50:00;;;;;;;0.7;0.7;;;;;;;11.9;100.0;101290;;;;
2022/09/18 05:51:00;;;;;;;0.7;0.7;;;;;;;11.9;100.0;101290;;;;
2022/09/18 05:52:00;;;;;;;0.7;0.7;;;;;;;11.9;100.0;101290;;;;
2022/09/18 05:53:01;;;;;;;0.7;0.7;;;;;;;12.0;100.0;101290;;;;
2022/09/18 05:54:00;;;;;;;0.7;0.7;;;;;;;12.0;100.0;101290;;;;
2022/09/18 05:55:00;;;;;;;0.7;0.7;;;;;;;11.9;100.0;101300;;;;
2022/09/18 05:56:00;;;;;;;0.7;0.7;;;;;;;11.9;100.0;101300;;;;
2022/09/18 05:57:00;;;;;;;0.7;0.7;;;;;;;11.9;100.0;101300;;;;
2022/09/18 05:58:00;;;;;;;0.7;0.7;;;;;;;11.9;100.0;101300;;;;
2022/09/18 05:59:00;;;;;;;0.7;0.7;;;;;;;11.9;100.0;101310;;;;
2022/09/18 06:00:00;;;;;;;0.7;0.7;;;;;;;11.9;100.0;101310;;;;
2022/09/18 06:01:01;;;;;;;0.7;0.7;;;;;;;11.8;100.0;101300;;;;
2022/09/18 06:02:00;;;;;;;0.7;0.7;;;;;;;11.8;100.0;101300;;;;
2022/09/18 06:03:02;;;;;;;0.7;0.7;;;;;;;11.9;100.0;101290;;;;
2022/09/18 06:04:01;;;;;;;0.7;0.7;;;;;;;11.9;100.0;101290;;;;
2022/09/18 06:05:00;;;;;;;0.7;0.7;;;;;;;11.9;100.0;101290;;;;
2022/09/18 06:06:00;;;;;;;0.7;0.7;;;;;;;11.9;100.0;101290;;;;
2022/09/18 06:07:00;;;;;;;0.7;0.7;;;;;;;12.0;100.0;101290;;;;
2022/09/18 06:08:01;;;;;;;0.6;0.6;;;;;;;12.0;100.0;101290;;;;
2022/09/18 06:09:00;;;;;;;0.6;0.6;;;;;;;11.9;100.0;101290;;;;
2022/09/18 06:10:00;;;;;;;0.6;0.6;;;;;;;11.9;100.0;101290;;;;
2022/09/18 06:11:00;;;;;;;0.6;0.6;;;;;;;11.9;100.0;101290;;;;
2022/09/18 06:12:00;;;;;;;0.6;0.6;;;;;;;11.9;100.0;101290;;;;
2022/09/18 06:13:01;;;;;;;0.6;0.6;;;;;;;11.9;100.0;101300;;;;
2022/09/18 06:14:00;;;;;;;0.6;0.6;;;;;;;11.9;100.0;101300;;;;
2022/09/18 06:15:00;;;;;;;0.6;0.6;;;;;;;11.9;100.0;101290;;;;
2022/09/18 06:16:00;;;;;;;0.6;0.6;;;;;;;11.9;100.0;101290;;;;
2022/09/18 06:17:00;;;;;;;0.6;0.6;;;;;;;11.9;100.0;101290;;;;
2022/09/18 06:18:00;;;;;;;0.6;0.6;;;;;;;11.9;100.0;101290;;;;
2022/09/18 06:19:00;;;;;;;0.6;0.6;;;;;;;12.0;100.0;101290;;;;
2022/09/18 06:20:00;;;;;;;0.6;0.6;;;;;;;12.0;100.0;101290;;;;
2022/09/18 06:21:00;;;;;;;0.6;0.6;;;;;;;12.0;100.0;101290;;;;
2022/09/18 06:22:00;;;;;;;0.6;0.6;;;;;;;12.0;100.0;101290;;;;